首页
METAR-TAF:

METAR-TAF

机场 :

阿森松島皇家空軍基地

乔治敦, 阿森松岛

纬度: 07-58S, 经度: 014-24W, 海拔: 86米

当前天气观测

该预报发布于51分钟前的21:50 UTC
风速13节,风向东南
温度 25°C
湿度 74%
气压 1015 hPa
能见度10公里或以上
少量云层高于2700英尺

METAR: FHAW 252150Z 13013KT 9999 FEW027 25/20 Q1015 NOSIG RMK BLU BLU

时间: 22:41 (22:41 UTC)

预报

该预报发布于2小时和46分钟前的19:55 UTC
预报有效从25日的 21点(UTC)到 26日的 15点(UTC)
风速14节,风向东南
能见度10公里或以上
少量云层高于2500英尺
短暂存在
从 25日的 21点(UTC)到 26日的 12点(UTC)
风速15节,风向东南,有时为25节阵风
几率 30% :
短暂存在
从 25日的 21点(UTC)到 26日的 06点(UTC)
散云层高于2200英尺
小阵雨
几率 40% :
短暂存在
从 26日的 06点(UTC)到 26日的 12点(UTC)
散云层高于2400英尺

TAF: FHAW 251955Z 2521/2615 14014KT 9999 FEW025 TEMPO 2521/2612 13015G25KT PROB30 TEMPO 2521/2606 -SHRA SCT022 PROB40 TEMPO 2606/2612 SCT024

超过4000个机场的气象观测和天气预报(METAR&TAF报告)。

可查询的气象台以黄色和红色小点在地图上表示。

将鼠标移到小点上方,可查看气象台名称。

然后点击查看天气观测和预报。

如需切换地图:点击带黑十字的绿色按钮放大地图;点击带横线的绿色按钮缩小地图;或者点击绿色箭头查看邻近地区的地图。


METAR-TAF: